sensor_id;sensor_type;location;lat;lon;timestamp;pressure;altitude;pressure_sealevel;temperature;humidity
50854;BME280;44154;45.506;-122.806;2023-04-04T00:01:40;101000.28;;;25.76;30.81
50854;BME280;44154;45.506;-122.806;2023-04-04T00:04:06;100997.19;;;25.94;30.85
50854;BME280;44154;45.506;-122.806;2023-04-04T00:06:32;101004.16;;;26.07;30.76
50854;BME280;44154;45.506;-122.806;2023-04-04T00:08:58;101001.47;;;26.12;30.64
50854;BME280;44154;45.506;-122.806;2023-04-04T00:11:25;100993.44;;;26.06;30.66
50854;BME280;44154;45.506;-122.806;2023-04-04T00:13:52;100991.69;;;25.94;30.43
50854;BME280;44154;45.506;-122.806;2023-04-04T00:16:19;100997.66;;;25.91;30.60
50854;BME280;44154;45.506;-122.806;2023-04-04T00:18:45;100999.53;;;25.86;30.93
50854;BME280;44154;45.506;-122.806;2023-04-04T00:21:11;100992.63;;;25.78;31.04
50854;BME280;44154;45.506;-122.806;2023-04-04T00:23:37;100996.13;;;25.73;31.12
50854;BME280;44154;45.506;-122.806;2023-04-04T00:26:03;100998.53;;;25.70;30.88
50854;BME280;44154;45.506;-122.806;2023-04-04T00:28:30;100998.25;;;25.66;30.88
50854;BME280;44154;45.506;-122.806;2023-04-04T00:30:56;100999.59;;;25.63;31.04
50854;BME280;44154;45.506;-122.806;2023-04-04T00:33:22;100993.53;;;25.61;31.04
50854;BME280;44154;45.506;-122.806;2023-04-04T00:35:48;100989.16;;;25.60;31.10
50854;BME280;44154;45.506;-122.806;2023-04-04T00:38:14;100980.81;;;25.50;30.96
50854;BME280;44154;45.506;-122.806;2023-04-04T00:40:46;100999.03;;;25.61;31.14
50854;BME280;44154;45.506;-122.806;2023-04-04T00:43:14;100995.97;;;25.58;31.26
50854;BME280;44154;45.506;-122.806;2023-04-04T00:45:42;100996.22;;;25.56;31.24
50854;BME280;44154;45.506;-122.806;2023-04-04T00:48:08;100998.97;;;25.56;30.97
50854;BME280;44154;45.506;-122.806;2023-04-04T00:50:34;100995.41;;;25.56;30.76
50854;BME280;44154;45.506;-122.806;2023-04-04T00:53:00;100998.50;;;25.65;31.28
50854;BME280;44154;45.506;-122.806;2023-04-04T00:55:27;100995.44;;;25.88;30.94
50854;BME280;44154;45.506;-122.806;2023-04-04T00:57:53;100991.44;;;25.96;30.86
50854;BME280;44154;45.506;-122.806;2023-04-04T01:00:19;100992.63;;;26.05;30.69
50854;BME280;44154;45.506;-122.806;2023-04-04T01:02:46;100993.19;;;26.07;30.72
50854;BME280;44154;45.506;-122.806;2023-04-04T01:05:12;100997.81;;;26.02;30.71
50854;BME280;44154;45.506;-122.806;2023-04-04T01:07:39;101000.47;;;25.96;30.88
50854;BME280;44154;45.506;-122.806;2023-04-04T01:10:06;101005.91;;;25.91;30.72
50854;BME280;44154;45.506;-122.806;2023-04-04T01:12:33;101005.88;;;25.86;30.92
50854;BME280;44154;45.506;-122.806;2023-04-04T01:14:59;100947.88;;;25.45;31.08
50854;BME280;44154;45.506;-122.806;2023-04-04T01:17:26;101010.66;;;25.74;31.25
50854;BME280;44154;45.506;-122.806;2023-04-04T01:22:26;101011.38;;;25.64;31.35
50854;BME280;44154;45.506;-122.806;2023-04-04T01:24:55;101010.56;;;25.63;31.43
50854;BME280;44154;45.506;-122.806;2023-04-04T01:27:21;101020.97;;;25.61;31.33
50854;BME280;44154;45.506;-122.806;2023-04-04T01:29:48;100982.66;;;25.44;31.29
50854;BME280;44154;45.506;-122.806;2023-04-04T01:32:48;101018.75;;;25.58;31.62
50854;BME280;44154;45.506;-122.806;2023-04-04T01:35:28;101020.63;;;25.58;31.46
50854;BME280;44154;45.506;-122.806;2023-04-04T01:40:54;101020.84;;;25.51;31.44
50854;BME280;44154;45.506;-122.806;2023-04-04T01:43:22;101009.03;;;25.51;31.49
50854;BME280;44154;45.506;-122.806;2023-04-04T01:45:48;101022.81;;;25.56;31.63
50854;BME280;44154;45.506;-122.806;2023-04-04T01:48:15;101027.44;;;25.55;31.39
50854;BME280;44154;45.506;-122.806;2023-04-04T01:50:41;101029.63;;;25.53;31.68
50854;BME280;44154;45.506;-122.806;2023-04-04T01:53:07;101023.00;;;25.49;31.51
50854;BME280;44154;45.506;-122.806;2023-04-04T01:55:33;101031.72;;;25.46;31.85
50854;BME280;44154;45.506;-122.806;2023-04-04T01:58:00;101029.00;;;25.46;31.84
50854;BME280;44154;45.506;-122.806;2023-04-04T02:00:26;101029.56;;;25.48;31.71
50854;BME280;44154;45.506;-122.806;2023-04-04T02:02:52;101019.47;;;25.54;31.84
50854;BME280;44154;45.506;-122.806;2023-04-04T02:05:18;101040.03;;;25.78;31.79
50854;BME280;44154;45.506;-122.806;2023-04-04T02:07:47;101040.72;;;25.91;31.64
50854;BME280;44154;45.506;-122.806;2023-04-04T02:10:15;101047.66;;;25.98;31.40
50854;BME280;44154;45.506;-122.806;2023-04-04T02:12:41;101029.47;;;25.87;31.34
50854;BME280;44154;45.506;-122.806;2023-04-04T02:15:07;101050.03;;;25.90;31.38
50854;BME280;44154;45.506;-122.806;2023-04-04T02:17:34;101052.72;;;25.85;31.46
50854;BME280;44154;45.506;-122.806;2023-04-04T02:20:00;101047.44;;;25.78;31.74
50854;BME280;44154;45.506;-122.806;2023-04-04T02:22:27;101058.84;;;25.70;31.76
50854;BME280;44154;45.506;-122.806;2023-04-04T02:24:53;101059.63;;;25.65;32.13
50854;BME280;44154;45.506;-122.806;2023-04-04T02:27:19;101056.84;;;25.60;32.07
50854;BME280;44154;45.506;-122.806;2023-04-04T02:29:45;101057.28;;;25.52;32.14
50854;BME280;44154;45.506;-122.806;2023-04-04T02:32:11;101065.13;;;25.43;32.58
50854;BME280;44154;45.506;-122.806;2023-04-04T02:34:37;101065.66;;;25.40;32.60
50854;BME280;44154;45.506;-122.806;2023-04-04T02:37:04;101063.91;;;25.34;32.53
50854;BME280;44154;45.506;-122.806;2023-04-04T02:39:31;101065.31;;;25.36;32.41
50854;BME280;44154;45.506;-122.806;2023-04-04T02:41:57;101063.41;;;25.37;32.39
50854;BME280;44154;45.506;-122.806;2023-04-04T02:44:23;101074.69;;;25.40;32.46
50854;BME280;44154;45.506;-122.806;2023-04-04T02:46:49;101066.97;;;25.59;32.43
50854;BME280;44154;45.506;-122.806;2023-04-04T02:49:15;101065.84;;;25.83;32.04
50854;BME280;44154;45.506;-122.806;2023-04-04T02:51:41;101073.63;;;25.91;32.17
50854;BME280;44154;45.506;-122.806;2023-04-04T02:54:07;101077.19;;;25.91;31.93
50854;BME280;44154;45.506;-122.806;2023-04-04T02:56:36;101065.47;;;25.74;32.10
50854;BME280;44154;45.506;-122.806;2023-04-04T02:59:03;101064.59;;;25.68;31.99
50854;BME280;44154;45.506;-122.806;2023-04-04T03:01:29;101075.56;;;25.68;32.02
50854;BME280;44154;45.506;-122.806;2023-04-04T03:03:55;101061.38;;;25.49;32.21
50854;BME280;44154;45.506;-122.806;2023-04-04T03:06:22;101085.25;;;25.54;31.96
50854;BME280;44154;45.506;-122.806;2023-04-04T03:08:48;101089.09;;;25.53;32.23
50854;BME280;44154;45.506;-122.806;2023-04-04T03:11:17;101098.41;;;25.52;31.95
50854;BME280;44154;45.506;-122.806;2023-04-04T03:13:46;101099.16;;;25.47;32.25
50854;BME280;44154;45.506;-122.806;2023-04-04T03:16:12;101100.50;;;25.44;32.05
50854;BME280;44154;45.506;-122.806;2023-04-04T03:18:40;101096.09;;;25.43;31.89
50854;BME280;44154;45.506;-122.806;2023-04-04T03:21:07;101109.41;;;25.35;32.00
50854;BME280;44154;45.506;-122.806;2023-04-04T03:23:33;101108.88;;;25.38;32.05
50854;BME280;44154;45.506;-122.806;2023-04-04T03:25:59;101112.72;;;25.37;32.31
50854;BME280;44154;45.506;-122.806;2023-04-04T03:28:26;101121.00;;;25.42;32.35
50854;BME280;44154;45.506;-122.806;2023-04-04T03:30:53;101118.47;;;25.57;32.02
50854;BME280;44154;45.506;-122.806;2023-04-04T03:33:19;101117.53;;;25.69;31.84
50854;BME280;44154;45.506;-122.806;2023-04-04T03:35:46;101075.97;;;25.33;31.85
50854;BME280;44154;45.506;-122.806;2023-04-04T03:38:12;101122.63;;;25.60;31.74
50854;BME280;44154;45.506;-122.806;2023-04-04T03:40:39;101130.22;;;25.53;31.83
50854;BME280;44154;45.506;-122.806;2023-04-04T03:43:06;101105.00;;;25.34;32.29
50854;BME280;44154;45.506;-122.806;2023-04-04T03:45:33;101134.19;;;25.45;32.11
50854;BME280;44154;45.506;-122.806;2023-04-04T03:48:00;101141.25;;;25.41;31.81
50854;BME280;44154;45.506;-122.806;2023-04-04T03:50:27;101140.13;;;25.37;32.05
50854;BME280;44154;45.506;-122.806;2023-04-04T03:52:54;101141.72;;;25.33;32.01
50854;BME280;44154;45.506;-122.806;2023-04-04T03:55:20;101141.09;;;25.31;32.11
50854;BME280;44154;45.506;-122.806;2023-04-04T03:57:46;101139.28;;;25.19;32.60
50854;BME280;44154;45.506;-122.806;2023-04-04T04:00:12;101142.41;;;25.28;32.58
50854;BME280;44154;45.506;-122.806;2023-04-04T04:02:39;101141.97;;;25.31;32.49
50854;BME280;44154;45.506;-122.806;2023-04-04T04:05:05;101130.81;;;25.38;32.42
50854;BME280;44154;45.506;-122.806;2023-04-04T04:07:32;101142.63;;;25.60;31.81
50854;BME280;44154;45.506;-122.806;2023-04-04T04:09:58;101142.47;;;25.67;31.83
50854;BME280;44154;45.506;-122.806;2023-04-04T04:12:25;101155.81;;;25.63;31.51
50854;BME280;44154;45.506;-122.806;2023-04-04T04:14:51;101158.50;;;25.58;31.55
50854;BME280;44154;45.506;-122.806;2023-04-04T04:17:17;101163.66;;;25.55;31.62
50854;BME280;44154;45.506;-122.806;2023-04-04T04:19:44;101162.00;;;25.54;31.56
50854;BME280;44154;45.506;-122.806;2023-04-04T04:22:10;101163.81;;;25.48;31.84
50854;BME280;44154;45.506;-122.806;2023-04-04T04:24:36;101169.00;;;25.44;31.66
50854;BME280;44154;45.506;-122.806;2023-04-04T04:27:02;101175.81;;;25.42;31.58
50854;BME280;44154;45.506;-122.806;2023-04-04T04:29:28;101179.06;;;25.39;31.40
50854;BME280;44154;45.506;-122.806;2023-04-04T04:31:54;101176.47;;;25.32;31.49
50854;BME280;44154;45.506;-122.806;2023-04-04T04:34:21;101146.59;;;25.14;31.50
50854;BME280;44154;45.506;-122.806;2023-04-04T04:36:47;101186.25;;;25.28;31.89
50854;BME280;44154;45.506;-122.806;2023-04-04T04:39:13;101179.44;;;25.31;31.71
50854;BME280;44154;45.506;-122.806;2023-04-04T04:41:39;101181.94;;;25.49;31.56
50854;BME280;44154;45.506;-122.806;2023-04-04T04:44:06;101187.13;;;25.68;31.27
50854;BME280;44154;45.506;-122.806;2023-04-04T04:46:32;101189.63;;;25.69;31.07
50854;BME280;44154;45.506;-122.806;2023-04-04T04:48:58;101198.09;;;25.68;31.25
50854;BME280;44154;45.506;-122.806;2023-04-04T04:51:24;101194.78;;;25.66;31.40
50854;BME280;44154;45.506;-122.806;2023-04-04T04:53:50;101192.53;;;25.62;31.15
50854;BME280;44154;45.506;-122.806;2023-04-04T04:56:17;101193.25;;;25.53;31.46
50854;BME280;44154;45.506;-122.806;2023-04-04T04:58:43;101195.72;;;25.54;31.50
50854;BME280;44154;45.506;-122.806;2023-04-04T05:01:10;101188.56;;;25.53;31.11
50854;BME280;44154;45.506;-122.806;2023-04-04T05:03:36;101187.38;;;25.44;31.36
50854;BME280;44154;45.506;-122.806;2023-04-04T05:06:02;101188.19;;;25.44;31.19
50854;BME280;44154;45.506;-122.806;2023-04-04T05:08:28;101192.25;;;25.42;31.15
50854;BME280;44154;45.506;-122.806;2023-04-04T05:10:55;101192.19;;;25.37;31.15
50854;BME280;44154;45.506;-122.806;2023-04-04T05:13:21;101172.41;;;25.18;31.27
50854;BME280;44154;45.506;-122.806;2023-04-04T05:15:47;101177.63;;;25.19;31.39
50854;BME280;44154;45.506;-122.806;2023-04-04T05:18:13;101190.19;;;25.32;31.42
50854;BME280;44154;45.506;-122.806;2023-04-04T05:20:39;101193.56;;;25.39;31.42
50854;BME280;44154;45.506;-122.806;2023-04-04T05:23:06;101200.69;;;25.57;31.20
50854;BME280;44154;45.506;-122.806;2023-04-04T05:25:32;101198.09;;;25.68;30.77
50854;BME280;44154;45.506;-122.806;2023-04-04T05:27:58;101195.63;;;25.66;30.74
50854;BME280;44154;45.506;-122.806;2023-04-04T05:30:24;101195.88;;;25.65;30.72
50854;BME280;44154;45.506;-122.806;2023-04-04T05:32:51;101194.72;;;25.60;30.74
50854;BME280;44154;45.506;-122.806;2023-04-04T05:35:17;101199.38;;;25.60;30.68
50854;BME280;44154;45.506;-122.806;2023-04-04T05:37:43;101196.53;;;25.55;30.88
50854;BME280;44154;45.506;-122.806;2023-04-04T05:40:09;101201.72;;;25.51;30.77
50854;BME280;44154;45.506;-122.806;2023-04-04T05:42:36;101207.38;;;25.44;31.14
50854;BME280;44154;45.506;-122.806;2023-04-04T05:45:02;101197.97;;;25.40;30.96
50854;BME280;44154;45.506;-122.806;2023-04-04T05:47:28;101199.81;;;25.35;31.05
50854;BME280;44154;45.506;-122.806;2023-04-04T05:49:54;101211.28;;;25.32;30.85
50854;BME280;44154;45.506;-122.806;2023-04-04T05:52:20;101201.78;;;25.39;31.11
50854;BME280;44154;45.506;-122.806;2023-04-04T05:54:47;101197.31;;;25.50;30.87
50854;BME280;44154;45.506;-122.806;2023-04-04T05:57:13;101204.34;;;25.63;30.93
50854;BME280;44154;45.506;-122.806;2023-04-04T05:59:39;101210.28;;;25.77;30.68
50854;BME280;44154;45.506;-122.806;2023-04-04T06:02:05;101211.13;;;25.77;30.59
50854;BME280;44154;45.506;-122.806;2023-04-04T06:04:32;101209.63;;;25.70;30.41
50854;BME280;44154;45.506;-122.806;2023-04-04T06:06:59;101214.53;;;25.68;30.54
50854;BME280;44154;45.506;-122.806;2023-04-04T06:09:25;101208.16;;;25.62;30.61
50854;BME280;44154;45.506;-122.806;2023-04-04T06:11:52;101208.31;;;25.55;30.59
50854;BME280;44154;45.506;-122.806;2023-04-04T06:14:18;101200.88;;;25.51;30.87
50854;BME280;44154;45.506;-122.806;2023-04-04T06:16:45;101213.09;;;25.43;30.74
50854;BME280;44154;45.506;-122.806;2023-04-04T06:19:12;101211.94;;;25.39;30.50
50854;BME280;44154;45.506;-122.806;2023-04-04T06:21:38;101208.28;;;25.33;30.87
50854;BME280;44154;45.506;-122.806;2023-04-04T06:24:04;101212.56;;;25.29;30.97
50854;BME280;44154;45.506;-122.806;2023-04-04T06:26:30;101210.03;;;25.22;30.92
50854;BME280;44154;45.506;-122.806;2023-04-04T06:28:56;101215.97;;;25.19;31.06
50854;BME280;44154;45.506;-122.806;2023-04-04T06:31:23;101211.84;;;25.17;31.00
50854;BME280;44154;45.506;-122.806;2023-04-04T06:33:49;101208.19;;;25.11;31.07
50854;BME280;44154;45.506;-122.806;2023-04-04T06:36:15;101216.66;;;25.09;31.37
50854;BME280;44154;45.506;-122.806;2023-04-04T06:38:41;101217.97;;;25.07;31.14
50854;BME280;44154;45.506;-122.806;2023-04-04T06:41:07;101216.81;;;25.03;31.20
50854;BME280;44154;45.506;-122.806;2023-04-04T06:43:33;101215.13;;;25.02;31.39
50854;BME280;44154;45.506;-122.806;2023-04-04T06:46:00;101213.47;;;25.01;30.98
50854;BME280;44154;45.506;-122.806;2023-04-04T06:48:26;101217.31;;;25.00;31.05
50854;BME280;44154;45.506;-122.806;2023-04-04T06:50:52;101220.03;;;25.00;30.92
50854;BME280;44154;45.506;-122.806;2023-04-04T06:53:18;101213.16;;;24.97;30.79
50854;BME280;44154;45.506;-122.806;2023-04-04T06:55:44;101216.97;;;24.96;31.03
50854;BME280;44154;45.506;-122.806;2023-04-04T06:58:10;101220.78;;;24.95;30.89
50854;BME280;44154;45.506;-122.806;2023-04-04T07:00:36;101218.38;;;24.99;30.88
50854;BME280;44154;45.506;-122.806;2023-04-04T07:03:03;101218.63;;;24.97;31.07
50854;BME280;44154;45.506;-122.806;2023-04-04T07:05:29;101221.94;;;24.99;31.24
50854;BME280;44154;45.506;-122.806;2023-04-04T07:07:56;101226.59;;;24.99;31.46
50854;BME280;44154;45.506;-122.806;2023-04-04T07:10:23;101212.13;;;24.86;31.33
50854;BME280;44154;45.506;-122.806;2023-04-04T07:12:50;101234.56;;;25.17;31.27
50854;BME280;44154;45.506;-122.806;2023-04-04T07:15:16;101208.75;;;25.13;31.18
50854;BME280;44154;45.506;-122.806;2023-04-04T07:17:42;101233.81;;;25.22;31.12
50854;BME280;44154;45.506;-122.806;2023-04-04T07:20:09;101236.25;;;25.18;31.25
50854;BME280;44154;45.506;-122.806;2023-04-04T07:22:38;101237.22;;;25.12;31.07
50854;BME280;44154;45.506;-122.806;2023-04-04T07:25:06;101236.91;;;25.08;31.20
50854;BME280;44154;45.506;-122.806;2023-04-04T07:27:32;101243.69;;;25.06;31.06
50854;BME280;44154;45.506;-122.806;2023-04-04T07:29:58;101230.41;;;24.98;31.13
50854;BME280;44154;45.506;-122.806;2023-04-04T07:32:24;101231.56;;;25.02;31.08
50854;BME280;44154;45.506;-122.806;2023-04-04T07:34:51;101225.44;;;24.94;30.96
50854;BME280;44154;45.506;-122.806;2023-04-04T07:37:17;101231.41;;;24.91;31.11
50854;BME280;44154;45.506;-122.806;2023-04-04T07:39:43;101211.56;;;24.84;31.12
50854;BME280;44154;45.506;-122.806;2023-04-04T07:42:09;101224.59;;;24.94;30.81
50854;BME280;44154;45.506;-122.806;2023-04-04T07:44:36;101224.28;;;25.07;30.85
50854;BME280;44154;45.506;-122.806;2023-04-04T07:47:02;101219.72;;;25.30;30.44
50854;BME280;44154;45.506;-122.806;2023-04-04T07:49:28;101217.66;;;25.37;30.46
50854;BME280;44154;45.506;-122.806;2023-04-04T07:51:54;101221.81;;;25.40;30.51
50854;BME280;44154;45.506;-122.806;2023-04-04T07:54:20;101222.81;;;25.34;30.60
50854;BME280;44154;45.506;-122.806;2023-04-04T07:56:49;101221.78;;;25.23;30.30
50854;BME280;44154;45.506;-122.806;2023-04-04T07:59:15;101222.56;;;25.18;30.30
50854;BME280;44154;45.506;-122.806;2023-04-04T08:01:41;101216.97;;;25.13;30.40
50854;BME280;44154;45.506;-122.806;2023-04-04T08:04:07;101210.25;;;25.04;30.34
50854;BME280;44154;45.506;-122.806;2023-04-04T08:06:33;101220.78;;;24.95;30.51
50854;BME280;44154;45.506;-122.806;2023-04-04T08:09:01;101217.13;;;24.89;31.03
50854;BME280;44154;45.506;-122.806;2023-04-04T08:11:28;101200.84;;;24.83;32.26
50854;BME280;44154;45.506;-122.806;2023-04-04T08:13:54;101219.28;;;24.87;31.67
50854;BME280;44154;45.506;-122.806;2023-04-04T08:16:20;101215.97;;;24.85;31.71
50854;BME280;44154;45.506;-122.806;2023-04-04T08:18:46;101224.19;;;24.85;31.81
50854;BME280;44154;45.506;-122.806;2023-04-04T08:21:12;101223.25;;;24.80;31.83
50854;BME280;44154;45.506;-122.806;2023-04-04T08:23:38;101222.41;;;24.79;31.60
50854;BME280;44154;45.506;-122.806;2023-04-04T08:26:05;101220.78;;;24.78;33.39
50854;BME280;44154;45.506;-122.806;2023-04-04T08:28:31;101216.28;;;24.89;32.81
50854;BME280;44154;45.506;-122.806;2023-04-04T08:30:57;101215.81;;;25.09;32.53
50854;BME280;44154;45.506;-122.806;2023-04-04T08:33:23;101217.47;;;25.27;31.66
50854;BME280;44154;45.506;-122.806;2023-04-04T08:35:50;101192.06;;;25.15;31.90
50854;BME280;44154;45.506;-122.806;2023-04-04T08:38:16;101214.34;;;25.18;31.93
50854;BME280;44154;45.506;-122.806;2023-04-04T08:40:51;101214.25;;;25.13;32.26
50854;BME280;44154;45.506;-122.806;2023-04-04T08:43:19;101215.31;;;25.12;32.22
50854;BME280;44154;45.506;-122.806;2023-04-04T08:45:48;101217.97;;;25.07;32.15
50854;BME280;44154;45.506;-122.806;2023-04-04T08:48:16;101216.81;;;25.03;32.65
50854;BME280;44154;45.506;-122.806;2023-04-04T08:50:44;101208.19;;;24.94;32.25
50854;BME280;44154;45.506;-122.806;2023-04-04T08:53:11;101205.50;;;24.82;32.34
50854;BME280;44154;45.506;-122.806;2023-04-04T08:55:38;101209.06;;;24.83;32.45
50854;BME280;44154;45.506;-122.806;2023-04-04T08:58:05;101181.94;;;24.52;34.47
50854;BME280;44154;45.506;-122.806;2023-04-04T09:00:31;101198.69;;;24.56;34.07
50854;BME280;44154;45.506;-122.806;2023-04-04T09:03:01;101198.59;;;24.63;34.08
50854;BME280;44154;45.506;-122.806;2023-04-04T09:05:30;101196.63;;;24.75;34.48
50854;BME280;44154;45.506;-122.806;2023-04-04T09:07:57;101204.41;;;24.83;33.25
50854;BME280;44154;45.506;-122.806;2023-04-04T09:10:24;101200.03;;;24.82;34.90
50854;BME280;44154;45.506;-122.806;2023-04-04T09:12:50;101191.16;;;24.75;33.85
50854;BME280;44154;45.506;-122.806;2023-04-04T09:15:17;101197.44;;;24.75;33.69
50854;BME280;44154;45.506;-122.806;2023-04-04T09:17:43;101189.13;;;24.70;33.69
50854;BME280;44154;45.506;-122.806;2023-04-04T09:20:38;101194.13;;;24.73;33.39
50854;BME280;44154;45.506;-122.806;2023-04-04T09:23:12;101197.94;;;24.72;32.82
50854;BME280;44154;45.506;-122.806;2023-04-04T09:25:47;101198.84;;;24.61;34.14
50854;BME280;44154;45.506;-122.806;2023-04-04T09:28:17;101198.25;;;24.47;34.28
50854;BME280;44154;45.506;-122.806;2023-04-04T09:30:47;101186.50;;;24.47;34.28
50854;BME280;44154;45.506;-122.806;2023-04-04T09:33:14;101185.97;;;24.62;33.76
50854;BME280;44154;45.506;-122.806;2023-04-04T09:35:46;101187.25;;;24.71;34.22
50854;BME280;44154;45.506;-122.806;2023-04-04T09:38:14;101185.69;;;24.75;33.77
50854;BME280;44154;45.506;-122.806;2023-04-04T09:40:42;101182.94;;;24.75;33.05
50854;BME280;44154;45.506;-122.806;2023-04-04T09:43:11;101182.34;;;24.73;33.33
50854;BME280;44154;45.506;-122.806;2023-04-04T09:45:39;101180.69;;;24.72;33.29
50854;BME280;44154;45.506;-122.806;2023-04-04T09:48:06;101180.09;;;24.70;33.54
50854;BME280;44154;45.506;-122.806;2023-04-04T09:50:35;101180.00;;;24.65;33.31
50854;BME280;44154;45.506;-122.806;2023-04-04T09:53:02;101183.69;;;24.58;33.42
50854;BME280;44154;45.506;-122.806;2023-04-04T09:55:33;101160.25;;;24.34;33.89
50854;BME280;44154;45.506;-122.806;2023-04-04T09:58:12;101184.41;;;24.37;33.95
50854;BME280;44154;45.506;-122.806;2023-04-04T10:00:45;101132.03;;;24.16;33.68
50854;BME280;44154;45.506;-122.806;2023-04-04T10:03:14;101181.59;;;24.61;34.11
50854;BME280;44154;45.506;-122.806;2023-04-04T10:05:41;101178.59;;;24.62;33.91
50854;BME280;44154;45.506;-122.806;2023-04-04T10:08:18;101180.59;;;24.67;33.33
50854;BME280;44154;45.506;-122.806;2023-04-04T10:10:52;101180.09;;;24.70;33.07
50854;BME280;44154;45.506;-122.806;2023-04-04T10:13:24;101182.72;;;24.65;33.04
50854;BME280;44154;45.506;-122.806;2023-04-04T10:15:57;101174.19;;;24.61;33.27
50854;BME280;44154;45.506;-122.806;2023-04-04T10:18:33;101179.06;;;24.59;33.12
50854;BME280;44154;45.506;-122.806;2023-04-04T10:21:04;101187.50;;;24.57;33.63
50854;BME280;44154;45.506;-122.806;2023-04-04T10:23:32;101179.09;;;24.47;33.49
50854;BME280;44154;45.506;-122.806;2023-04-04T10:25:59;101175.19;;;24.43;33.46
50854;BME280;44154;45.506;-122.806;2023-04-04T10:28:26;101179.72;;;24.49;33.22
50854;BME280;44154;45.506;-122.806;2023-04-04T10:31:15;101176.44;;;24.64;33.22
50854;BME280;44154;45.506;-122.806;2023-04-04T10:37:43;101170.47;;;24.67;32.92
50854;BME280;44154;45.506;-122.806;2023-04-04T10:40:06;101170.00;;;24.58;32.88
50854;BME280;44154;45.506;-122.806;2023-04-04T10:42:39;101174.91;;;24.56;32.87
50854;BME280;44154;45.506;-122.806;2023-04-04T10:45:07;101182.53;;;24.54;33.15
50854;BME280;44154;45.506;-122.806;2023-04-04T10:47:38;101182.19;;;24.51;32.95
50854;BME280;44154;45.506;-122.806;2023-04-04T10:50:05;101182.84;;;24.41;33.35
50854;BME280;44154;45.506;-122.806;2023-04-04T10:52:34;101176.69;;;24.34;33.33
50854;BME280;44154;45.506;-122.806;2023-04-04T10:55:04;101183.31;;;24.38;33.05
50854;BME280;44154;45.506;-122.806;2023-04-04T10:57:46;101168.66;;;24.44;32.94
50854;BME280;44154;45.506;-122.806;2023-04-04T11:00:17;101178.22;;;24.58;33.15
50854;BME280;44154;45.506;-122.806;2023-04-04T11:02:56;101174.44;;;24.59;32.85
50854;BME280;44154;45.506;-122.806;2023-04-04T11:05:31;101174.44;;;24.59;32.75
50854;BME280;44154;45.506;-122.806;2023-04-04T11:08:02;101175.16;;;24.55;32.77
50854;BME280;44154;45.506;-122.806;2023-04-04T11:10:35;101164.59;;;24.47;32.88
50854;BME280;44154;45.506;-122.806;2023-04-04T11:13:57;101172.72;;;24.41;32.93
50854;BME280;44154;45.506;-122.806;2023-04-04T11:16:04;101168.09;;;24.42;33.03
50854;BME280;44154;45.506;-122.806;2023-04-04T11:21:09;101167.22;;;24.24;33.43
50854;BME280;44154;45.506;-122.806;2023-04-04T11:29:04;101165.00;;;24.67;32.52
50854;BME280;44154;45.506;-122.806;2023-04-04T11:31:42;101171.56;;;24.66;32.40
50854;BME280;44154;45.506;-122.806;2023-04-04T11:41:54;101174.38;;;24.42;32.80
50854;BME280;44154;45.506;-122.806;2023-04-04T11:44:26;101174.06;;;24.39;32.84
50854;BME280;44154;45.506;-122.806;2023-04-04T11:47:07;101169.03;;;24.36;32.75
50854;BME280;44154;45.506;-122.806;2023-04-04T11:49:36;101164.91;;;24.33;32.91
50854;BME280;44154;45.506;-122.806;2023-04-04T11:52:12;101182.00;;;24.40;32.67
50854;BME280;44154;45.506;-122.806;2023-04-04T11:54:40;101176.56;;;24.57;32.50
50854;BME280;44154;45.506;-122.806;2023-04-04T11:57:11;101160.13;;;24.57;32.14
50854;BME280;44154;45.506;-122.806;2023-04-04T11:59:44;101169.66;;;24.67;32.12
50854;BME280;44154;45.506;-122.806;2023-04-04T12:02:13;101171.09;;;24.57;32.19
50854;BME280;44154;45.506;-122.806;2023-04-04T12:04:41;101167.44;;;24.52;32.28
50854;BME280;44154;45.506;-122.806;2023-04-04T12:07:10;101170.09;;;24.47;32.30
50854;BME280;44154;45.506;-122.806;2023-04-04T12:09:40;101158.59;;;24.33;32.65
50854;BME280;44154;45.506;-122.806;2023-04-04T12:12:11;101175.63;;;24.35;32.68
50854;BME280;44154;45.506;-122.806;2023-04-04T12:14:39;101168.16;;;24.30;32.63
50854;BME280;44154;45.506;-122.806;2023-04-04T12:17:05;101168.84;;;24.25;32.79
50854;BME280;44154;45.506;-122.806;2023-04-04T12:19:36;101165.16;;;24.32;32.65
50854;BME280;44154;45.506;-122.806;2023-04-04T12:22:04;101151.31;;;24.38;32.16
50854;BME280;44154;45.506;-122.806;2023-04-04T12:24:30;101163.50;;;24.59;32.16
50854;BME280;44154;45.506;-122.806;2023-04-04T12:26:57;101171.47;;;24.61;32.07
50854;BME280;44154;45.506;-122.806;2023-04-04T12:29:25;101171.22;;;24.63;32.00
50854;BME280;44154;45.506;-122.806;2023-04-04T12:32:00;101161.63;;;24.48;32.16
50854;BME280;44154;45.506;-122.806;2023-04-04T12:34:29;101174.25;;;24.49;32.14
50854;BME280;44154;45.506;-122.806;2023-04-04T12:36:56;101159.69;;;24.32;32.44
50854;BME280;44154;45.506;-122.806;2023-04-04T12:39:26;101174.06;;;24.56;32.12
50854;BME280;44154;45.506;-122.806;2023-04-04T12:42:01;101182.00;;;24.86;31.69
50854;BME280;44154;45.506;-122.806;2023-04-04T12:44:33;101177.16;;;25.05;31.53
50854;BME280;44154;45.506;-122.806;2023-04-04T12:47:02;101183.28;;;25.13;31.23
50854;BME280;44154;45.506;-122.806;2023-04-04T12:49:37;101189.53;;;25.08;31.33